Latest Weather Observations for Kempsey Airport

IDN60801

Issued at 11:05 pm EDT Friday 24 October 2014 (issued every 30 minutes, with the page automatically refreshed every 10 minutes)

About weather observations | Map of weather stations | Latest weather observations for NSW | Other Formats
Station Details ID: 059007 Name: KEMPSEY AIRPORT AWS Lat: -31.07 Lon: 152.77 Height: 13.0 m
Data from the previous 72 hours. | See also: Recent months for locations in New South Wales
Date/Time
EDT
Temp
°C
App
Temp
°C
Dew
Point
Rel
Hum
%
Delta-T
°C
Wind Press
QNH
hPa
Press
MSL
hPa
Rain
since 9 am
mm
Dir
 
Spd
km/h
Gust
km/h
Spd
kts
Gust
kts
24/11:00pm 17.4 18.6 15.0 86 1.4 ENE 2 6 1 3 1017.6 1017.6 0.0
24/10:30pm 17.9 18.4 15.5 86 1.4 E 7 9 4 5 1017.6 1017.6 0.0
24/10:00pm 18.1 18.5 15.4 84 1.6 NE 7 11 4 6 1018.5 1018.5 0.0
24/09:30pm 18.2 17.8 15.3 83 1.7 NE 11 13 6 7 1018.6 1018.6 0.0
24/09:00pm 18.0 19.7 15.1 83 1.7 CALM 0 6 0 3 1018.6 1018.6 0.0
24/08:30pm 18.6 19.1 15.1 80 2.0 NE 6 7 3 4 1018.4 1018.4 0.0
24/08:00pm 19.5 19.3 15.6 78 2.3 NE 11 13 6 7 1018.2 1018.2 0.0
24/07:30pm 20.1 19.5 15.7 76 2.6 NE 13 20 7 11 1018.2 1018.2 0.0
24/07:00pm 20.7 19.4 15.7 73 3.0 ENE 17 22 9 12 1018.0 1018.0 0.0
24/06:30pm 21.5 20.2 15.8 70 3.4 NE 17 22 9 12 1017.8 1017.8 0.0
24/06:00pm 22.3 20.5 15.9 67 3.8 NE 20 28 11 15 1017.8 1017.8 0.0
24/05:30pm 22.7 20.4 15.8 65 4.2 NE 22 30 12 16 1017.6 1017.6 0.0
24/05:00pm 23.5 21.2 15.8 62 4.6 NE 22 28 12 15 1017.9 1017.9 0.0
24/04:30pm 24.3 21.6 16.6 62 4.7 NE 26 35 14 19 1017.7 1017.7 0.0
24/04:00pm 24.1 22.6 16.4 62 4.7 ENE 19 26 10 14 1017.9 1017.9 0.0
24/03:30pm 24.0 22.1 15.2 58 5.3 NE 19 28 10 15 1018.1 1018.1 0.0
24/03:00pm 24.8 22.1 14.6 53 6.1 NE 22 30 12 16 1018.1 1018.1 0.0
24/02:30pm 26.0 23.0 14.8 50 6.7 E 24 32 13 17 1018.3 1018.3 0.0
24/02:00pm 26.6 23.9 15.6 50 6.7 E 24 32 13 17 1018.6 1018.6 0.0
24/01:30pm 26.7 24.8 15.7 51 6.7 ENE 20 26 11 14 1019.0 1019.0 0.0
24/01:00pm 26.9 25.4 16.2 52 6.6 E 19 28 10 15 1019.4 1019.4 0.0
24/12:30pm 26.5 24.8 15.8 51 6.5 E 19 30 10 16 1019.7 1019.7 0.0
24/12:00pm 25.5 23.4 15.2 53 6.2 E 20 26 11 14 1020.0 1020.0 0.0
24/11:30am 25.4 23.9 16.3 57 5.6 E 19 24 10 13 1020.5 1020.5 0.0
24/11:00am 24.7 24.7 16.2 59 5.2 ENE 11 19 6 10 1020.8 1020.8 0.0
24/10:30am 22.9 23.3 15.2 62 4.6 E 7 15 4 8 1021.3 1021.3 0.0
24/10:00am 22.3 22.7 15.4 65 4.1 E 7 11 4 6 1021.6 1021.6 0.0
24/09:30am 21.4 21.3 15.0 67 3.8 ESE 9 11 5 6 1021.8 1021.8 0.0
24/09:00am 20.0 20.7 15.6 76 2.6 SE 6 9 3 5 1021.8 1021.8 0.0
24/08:30am 17.5 18.1 15.3 87 1.3 W 6 9 3 5 1021.8 1021.8 0.0
24/08:00am 15.8 16.3 15.0 95 0.5 W 6 7 3 4 1021.7 1021.7 0.0
24/07:30am 14.3 14.1 13.5 95 0.4 W 7 9 4 5 1021.5 1021.5 0.0
24/07:00am 13.5 14.0 12.7 95 0.4 WNW 2 7 1 4 1021.2 1021.2 0.0
24/06:30am 11.9 10.9 11.1 95 0.4 W 7 11 4 6 1020.8 1020.8 0.0
24/06:00am 11.4 10.3 10.5 94 0.5 NW 7 7 4 4 1020.3 1020.3 0.0
24/05:30am 10.9 9.6 10.0 94 0.5 W 7 9 4 5 1020.1 1020.1 0.0
24/05:00am 12.1 12.5 11.2 94 0.5 CALM 0 0 0 0 1019.6 1019.6 0.0
24/04:30am 11.6 10.7 10.7 94 0.5 NW 6 7 3 4 1019.6 1019.6 0.0
24/04:00am 11.4 10.8 10.3 93 0.6 SW 4 9 2 5 1019.5 1019.5 0.0
24/03:30am 11.3 11.4 10.2 93 0.6 CALM 0 0 0 0 1019.3 1019.3 0.0
24/03:00am 13.0 12.5 11.9 93 0.6 WNW 6 7 3 4 1019.3 1019.3 0.0
24/02:30am 12.1 11.6 10.8 92 0.7 WNW 4 7 2 4 1019.4 1019.4 0.0
24/02:00am 13.2 13.9 12.3 94 0.5 CALM 0 0 0 0 1019.8 1019.8 0.0
24/01:30am 13.3 14.0 12.2 93 0.6 CALM 0 0 0 0 1019.9 1019.9 0.0
24/01:00am 13.8 14.6 12.7 93 0.6 CALM 0 0 0 0 1019.9 1019.9 0.0
24/12:30am 13.5 14.2 12.2 92 0.7 CALM 0 0 0 0 1020.1 1020.1 0.0
24/12:00am 14.1 15.0 13.0 93 0.6 WNW 0 0 0 0 1020.2 1020.2 0.0
 
Date/Time
EDT
Temp
°C
App
Temp
°C
Dew
Point
Rel
Hum
%
Delta-T
°C
Wind Press
QNH
hPa
Press
MSL
hPa
Rain
since 9 am
mm
Dir
 
Spd
km/h
Gust
km/h
Spd
kts
Gust
kts
23/11:30pm 13.2 13.7 11.6 90 0.9 CALM 0 2 0 1 1020.3 1020.3 0.0
23/11:00pm 14.5 14.1 13.0 91 0.8 WNW 7 9 4 5 1020.4 1020.4 0.0
23/10:30pm 14.6 15.6 13.1 91 0.8 CALM 0 0 0 0 1020.2 1020.2 0.0
23/10:00pm 15.1 15.9 13.6 91 0.8 SSE 2 6 1 3 1020.1 1020.1 0.0
23/09:30pm 15.4 14.8 13.6 89 1.0 W 9 11 5 6 1019.9 1019.9 0.0
23/09:00pm 15.6 16.6 13.1 85 1.4 CALM 0 6 0 3 1019.5 1019.5 0.0
23/08:30pm 17.4 17.3 14.9 85 1.4 E 9 15 5 8 1019.3 1019.3 0.0
23/08:00pm 17.3 17.2 13.8 80 2.0 E 7 11 4 6 1018.9 1018.9 0.0
23/07:30pm 18.6 18.5 14.9 79 2.2 E 9 11 5 6 1018.3 1018.3 0.0
23/07:00pm 19.6 18.6 14.6 73 2.9 E 13 15 7 8 1017.9 1017.9 0.0
23/06:30pm 21.3 20.7 14.7 66 3.9 E 11 15 6 8 1017.6 1017.6 0.0
23/06:00pm 22.8 21.9 14.9 61 4.7 E 13 19 7 10 1017.1 1017.1 0.0
23/05:30pm 24.2 23.1 15.4 58 5.3 E 15 19 8 10 1016.7 1016.7 0.0
23/05:00pm 24.2 22.7 14.3 54 5.8 E 15 20 8 11 1016.6 1016.6 0.0
23/04:30pm 23.9 22.5 14.6 56 5.5 E 15 19 8 10 1016.7 1016.7 0.0
23/04:00pm 23.8 22.3 14.2 55 5.6 ENE 15 20 8 11 1016.5 1016.5 0.0
23/03:30pm 24.4 22.7 13.6 51 6.3 ENE 15 24 8 13 1016.3 1016.3 0.0
23/03:00pm 25.2 21.9 12.8 46 7.2 NE 22 30 12 16 1016.1 1016.1 0.0
23/02:30pm 26.7 24.3 14.5 47 7.3 ENE 20 28 11 15 1016.1 1016.1 0.0
23/02:00pm 26.7 23.9 13.1 43 8.0 E 20 30 11 16 1016.3 1016.3 0.0
23/01:30pm 27.6 25.4 14.3 44 8.0 ENE 19 22 10 12 1016.6 1016.6 0.0
23/01:00pm 26.9 25.3 15.0 48 7.2 E 17 20 9 11 1017.2 1017.2 0.0
23/12:30pm 27.0 26.4 15.7 50 6.9 E 13 20 7 11 1017.6 1017.6 0.0
23/12:00pm 26.0 25.7 14.5 49 6.9 E 9 17 5 9 1018.1 1018.1 0.0
23/11:30am 25.4 25.2 14.8 52 6.3 E 9 13 5 7 1018.5 1018.5 0.0
23/11:00am 24.5 24.0 13.7 51 6.3 E 9 19 5 10 1018.9 1018.9 0.0
23/10:30am 23.5 23.1 12.5 50 6.3 N 6 11 3 6 1019.2 1019.2 0.0
23/10:00am 22.3 21.5 12.8 55 5.4 NNW 9 15 5 8 1019.4 1019.4 0.0
23/09:30am 20.4 20.2 13.1 63 4.2 NE 6 9 3 5 1019.7 1019.7 0.0
23/09:00am 18.3 19.2 13.0 71 3.0 CALM 0 7 0 4 1020.0 1020.0 0.0
23/08:30am 16.2 16.0 13.1 82 1.7 W 6 7 3 4 1020.2 1020.2 0.0
23/08:00am 13.9 14.2 12.1 89 1.0 WNW 2 6 1 3 1020.2 1020.2 0.0
23/07:30am 12.4 12.9 11.6 95 0.4 CALM 0 0 0 0 1020.3 1020.3 0.0
23/07:00am 10.5 10.5 9.7 95 0.4 CALM 0 0 0 0 1020.3 1020.3 0.0
23/06:30am 8.6 8.1 7.7 94 0.4 CALM 0 0 0 0 1020.2 1020.2 0.0
23/06:00am 8.3 7.7 7.4 94 0.4 CALM 0 0 0 0 1019.9 1019.9 0.0
23/05:30am 7.8 7.0 6.7 93 0.5 CALM 0 0 0 0 1019.8 1019.8 0.0
23/05:00am 8.6 8.1 7.7 94 0.4 CALM 0 0 0 0 1019.6 1019.6 0.0
23/04:30am 8.2 7.5 7.1 93 0.5 CALM 0 0 0 0 1019.8 1019.8 0.0
23/04:00am 9.2 8.8 8.3 94 0.4 CALM 0 0 0 0 1019.8 1019.8 0.0
23/03:30am 8.5 7.9 7.4 93 0.5 CALM 0 0 0 0 1019.9 1019.9 0.0
23/03:00am 9.1 8.7 8.2 94 0.4 CALM 0 0 0 0 1020.2 1020.2 0.0
23/02:30am 9.1 8.6 8.0 93 0.5 CALM 0 0 0 0 1020.4 1020.4 0.0
23/02:00am 9.1 8.6 8.0 93 0.5 CALM 0 0 0 0 1020.9 1020.9 0.0
23/01:30am 10.0 9.8 8.9 93 0.5 CALM 0 0 0 0 1021.0 1021.0 0.0
23/01:00am 9.8 8.3 8.6 92 0.6 W 6 9 3 5 1021.4 1021.4 0.0
23/12:30am 10.1 9.8 8.7 91 0.7 CALM 0 0 0 0 1021.6 1021.6 0.0
23/12:00am 10.9 10.9 9.7 92 0.6 CALM 0 0 0 0 1022.0 1022.0 0.0
 
Date/Time
EDT
Temp
°C
App
Temp
°C
Dew
Point
Rel
Hum
%
Delta-T
°C
Wind Press
QNH
hPa
Press
MSL
hPa
Rain
since 9 am
mm
Dir
 
Spd
km/h
Gust
km/h
Spd
kts
Gust
kts
22/11:30pm 10.6 10.4 9.2 91 0.7 CALM 0 0 0 0 1022.4 1022.4 0.0
22/11:00pm 11.0 9.7 9.3 89 0.8 W 6 7 3 4 1022.8 1022.8 0.0
22/10:30pm 11.7 11.7 9.8 88 1.0 CALM 0 0 0 0 1023.0 1023.0 0.0
22/10:00pm 12.3 12.4 10.0 86 1.2 CALM 0 0 0 0 1023.0 1023.0 0.0
22/09:30pm 13.0 13.2 10.7 86 1.2 CALM 0 0 0 0 1023.1 1023.1 0.0
22/09:00pm 13.5 13.7 10.5 82 1.6 CALM 0 0 0 0 1023.2 1023.2 0.0
22/08:30pm 14.4 14.6 10.4 77 2.1 CALM 0 0 0 0 1023.0 1023.0 0.0
22/08:00pm 16.0 14.7 11.4 74 2.5 NNE 9 11 5 6 1022.9 1022.9 0.0
22/07:30pm 16.8 15.1 11.3 70 3.0 NE 11 13 6 7 1022.8 1022.8 0.0
22/07:00pm 18.1 15.8 11.9 67 3.4 NE 15 20 8 11 1022.5 1022.5 0.0
22/06:30pm 19.3 16.8 12.3 64 3.9 NE 17 24 9 13 1022.4 1022.4 0.0
22/06:00pm 20.1 17.1 12.1 60 4.4 ENE 19 28 10 15 1022.2 1022.2 0.0
22/05:30pm 20.5 17.1 11.4 56 5.0 E 20 32 11 17 1022.1 1022.1 0.0
22/05:00pm 21.1 17.8 11.7 55 5.2 E 20 33 11 18 1022.2 1022.2 0.0
22/04:30pm 21.3 17.7 10.5 50 5.9 ENE 20 30 11 16 1022.2 1022.2 0.0
22/04:00pm 21.7 17.6 10.2 48 6.2 ENE 22 32 12 17 1022.2 1022.2 0.0
22/03:30pm 22.8 19.0 9.9 44 7.0 ENE 20 28 11 15 1022.6 1022.6 0.0
22/03:00pm 22.9 20.2 10.3 45 6.9 E 15 22 8 12 1022.9 1022.9 0.0
22/02:30pm 22.9 19.4 10.3 45 6.9 ESE 19 28 10 15 1023.3 1023.3 0.0
22/02:00pm 23.2 20.1 8.9 40 7.6 E 15 28 8 15 1023.7 1023.7 0.0
22/01:30pm 23.1 20.4 9.1 41 7.5 ENE 13 20 7 11 1024.3 1024.3 0.0
22/01:00pm 22.5 19.9 7.9 39 7.6 E 11 19 6 10 1024.9 1024.9 0.0
22/12:30pm 22.2 20.1 8.3 41 7.3 N 9 20 5 11 1025.5 1025.5 0.0
22/12:00pm 21.9 19.8 8.4 42 7.1 NE 9 15 5 8 1026.0 1026.0 0.0
22/11:30am 21.6 19.8 9.5 46 6.5 NNE 9 15 5 8 1026.4 1026.4 0.0
22/11:00am 20.3 18.3 6.3 40 7.0 N 6 15 3 8 1026.7 1026.7 0.0
22/10:30am 20.0 18.6 9.0 49 5.8 E 6 13 3 7 1027.2 1027.2 0.0
22/10:00am 19.7 19.0 11.5 59 4.5 SSE 6 9 3 5 1027.3 1027.3 0.0
22/09:30am 18.1 17.2 11.4 65 3.7 NW 7 11 4 6 1027.4 1027.4 0.0
22/09:00am 17.3 16.5 11.8 70 3.0 W 7 11 4 6 1027.5 1027.5 0.0
22/08:30am 16.2 15.4 11.6 74 2.5 W 7 13 4 7 1027.4 1027.4 0.0
22/08:00am 15.0 14.1 11.4 79 1.9 W 7 9 4 5 1027.4 1027.4 0.0
22/07:30am 14.3 13.5 11.6 84 1.4 WSW 7 9 4 5 1027.5 1027.5 0.0
22/07:00am 13.7 12.9 11.6 87 1.1 WSW 7 7 4 4 1027.3 1027.3 0.0
22/06:30am 12.6 12.1 10.7 88 1.0 WSW 4 7 2 4 1027.2 1027.2 0.0
22/06:00am 12.7 11.2 10.4 86 1.2 W 9 11 5 6 1027.0 1027.0 0.0
22/05:30am 13.0 10.9 11.1 88 1.0 W 13 15 7 8 1026.9 1026.9 0.0
22/05:00am 12.2 10.8 10.8 91 0.7 W 9 11 5 6 1027.0 1027.0 0.0
22/04:30am 12.4 11.6 11.0 91 0.7 W 6 9 3 5 1027.1 1027.1 0.0
22/04:00am 12.2 11.7 10.8 91 0.7 W 4 7 2 4 1027.4 1027.4 0.0
22/03:30am 12.7 13.0 10.9 89 0.9 CALM 0 0 0 0 1027.7 1027.7 0.0
22/03:00am 13.0 13.3 10.9 87 1.1 CALM 0 0 0 0 1028.1 1028.1 0.0
22/02:30am 13.6 12.0 11.7 88 1.0 WSW 11 13 6 7 1028.3 1028.3 0.0
22/02:00am 13.9 12.7 11.6 86 1.2 WSW 9 11 5 6 1028.7 1028.7 0.0
22/01:30am 14.4 13.6 11.6 83 1.5 SSW 7 11 4 6 1029.1 1029.1 0.0
22/01:00am 14.3 14.7 11.1 81 1.7 CALM 0 0 0 0 1029.3 1029.3 0.0
22/12:30am 14.5 14.8 10.9 79 1.9 CALM 0 0 0 0 1029.7 1029.7 0.0
22/12:00am 14.7 14.9 10.7 77 2.1 CALM 0 0 0 0 1030.0 1030.0 0.0
 
Date/Time
EDT
Temp
°C
App
Temp
°C
Dew
Point
Rel
Hum
%
Delta-T
°C
Wind Press
QNH
hPa
Press
MSL
hPa
Rain
since 9 am
mm
Dir
 
Spd
km/h
Gust
km/h
Spd
kts
Gust
kts
21/11:30pm 14.8 13.7 10.6 76 2.2 ESE 7 13 4 7 1030.2 1030.2 0.0

Other Formats:

Comma delimited format used in spreadsheet applications
http://www.bom.gov.au/fwo/IDN60801/IDN60801.94785.axf

JavaScript Object Notation format (JSON) in row-major order
http://www.bom.gov.au/fwo/IDN60801/IDN60801.94785.json